createdAt,value
2022-09-17T00:00:30.157Z,74.76
2022-09-17T00:03:35.025Z,74.36
2022-09-17T00:06:41.696Z,74.90
2022-09-17T00:09:48.102Z,74.92
2022-09-17T00:12:53.848Z,74.39
2022-09-17T00:16:00.924Z,74.51
2022-09-17T00:19:07.285Z,74.25
2022-09-17T00:22:12.870Z,74.18
2022-09-17T00:25:19.456Z,73.80
2022-09-17T00:28:24.151Z,73.89
2022-09-17T00:31:28.485Z,74.01
2022-09-17T00:34:33.270Z,73.71
2022-09-17T00:37:38.009Z,73.56
2022-09-17T00:40:43.253Z,72.90
2022-09-17T00:43:59.257Z,72.91
2022-09-17T00:46:59.035Z,72.61
2022-09-17T00:50:08.805Z,72.32
2022-09-17T00:53:26.444Z,73.10
2022-09-17T00:56:43.299Z,73.30
2022-09-17T00:59:49.772Z,72.58
2022-09-17T01:02:56.555Z,73.14
2022-09-17T01:06:43.594Z,72.94
2022-09-17T01:12:54.877Z,72.87
2022-09-17T01:16:14.713Z,72.87
2022-09-17T01:19:47.366Z,73.18
2022-09-17T01:23:16.188Z,72.54
2022-09-17T01:26:44.026Z,72.11
2022-09-17T01:30:20.310Z,72.35
2022-09-17T01:33:52.243Z,72.24
2022-09-17T01:37:14.914Z,71.94
2022-09-17T01:40:27.923Z,71.22
2022-09-17T01:43:46.484Z,70.83
2022-09-17T01:47:01.549Z,70.79
2022-09-17T01:50:09.539Z,71.31
2022-09-17T01:53:15.051Z,70.68
2022-09-17T01:56:21.973Z,70.55
2022-09-17T01:59:39.281Z,70.39
2022-09-17T02:03:18.023Z,70.39
2022-09-17T02:06:29.713Z,70.75
2022-09-17T02:09:41.960Z,71.06
2022-09-17T02:13:00.287Z,72.41
2022-09-17T02:19:10.041Z,72.90
2022-09-17T02:22:19.516Z,73.00
2022-09-17T02:25:34.827Z,72.27
2022-09-17T02:28:59.879Z,72.46
2022-09-17T02:32:05.042Z,72.54
2022-09-17T02:35:11.617Z,72.41
2022-09-17T02:38:16.985Z,72.14
2022-09-17T02:41:32.678Z,71.99
2022-09-17T02:45:13.848Z,71.75
2022-09-17T02:48:53.956Z,71.64
2022-09-17T02:52:20.309Z,71.44
2022-09-17T02:55:33.511Z,71.48
2022-09-17T02:58:48.655Z,71.74
2022-09-17T03:02:04.731Z,72.14
2022-09-17T03:05:11.280Z,72.45
2022-09-17T03:08:16.886Z,72.16
2022-09-17T03:11:16.165Z,71.55
2022-09-17T03:14:09.352Z,71.32
2022-09-17T03:17:14.447Z,70.94
2022-09-17T03:20:18.880Z,70.54
2022-09-17T03:23:25.126Z,70.28
2022-09-17T03:26:30.647Z,71.26
2022-09-17T03:29:37.056Z,71.68
2022-09-17T03:32:43.154Z,71.90
2022-09-17T03:35:42.206Z,71.32
2022-09-17T03:38:35.519Z,71.82
2022-09-17T03:41:40.980Z,71.30
2022-09-17T03:44:46.554Z,70.60
2022-09-17T03:47:52.350Z,71.25
2022-09-17T03:50:58.081Z,71.66
2022-09-17T03:54:03.783Z,71.05
2022-09-17T03:57:10.446Z,71.53
2022-09-17T04:00:09.808Z,71.59
2022-09-17T04:03:15.108Z,71.74
2022-09-17T04:06:20.423Z,71.47
2022-09-17T04:09:26.860Z,71.46
2022-09-17T04:12:34.452Z,71.29
2022-09-17T04:15:39.923Z,71.57
2022-09-17T04:18:45.506Z,71.49
2022-09-17T04:21:50.934Z,71.74
2022-09-17T04:24:57.664Z,71.59
2022-09-17T04:28:03.175Z,71.42
2022-09-17T04:31:02.249Z,71.37
2022-09-17T04:34:07.396Z,70.91
2022-09-17T04:37:12.726Z,70.88
2022-09-17T04:40:19.241Z,70.99
2022-09-17T04:43:25.174Z,70.50
2022-09-17T04:46:30.838Z,71.88
2022-09-17T04:49:37.991Z,71.72
2022-09-17T04:52:43.541Z,72.15
2022-09-17T04:55:49.172Z,72.11
2022-09-17T04:58:54.290Z,71.44
2022-09-17T05:02:00.761Z,71.80
2022-09-17T05:05:06.678Z,71.46
2022-09-17T05:08:12.010Z,70.77
2022-09-17T05:11:17.990Z,70.76
2022-09-17T05:14:23.158Z,70.64
2022-09-17T05:17:28.556Z,70.41
2022-09-17T05:20:34.054Z,69.12
2022-09-17T05:23:40.050Z,68.69
2022-09-17T05:26:45.850Z,68.62
2022-09-17T05:29:52.169Z,68.97
2022-09-17T05:32:58.455Z,68.92
2022-09-17T05:36:04.091Z,67.93
2022-09-17T05:39:10.620Z,68.76
2022-09-17T05:42:16.276Z,68.51
2022-09-17T05:45:15.303Z,67.80
2022-09-17T05:48:25.006Z,67.40
2022-09-17T05:51:30.663Z,66.54
2022-09-17T05:54:35.457Z,66.02
2022-09-17T05:57:33.652Z,66.87
2022-09-17T06:00:37.878Z,66.57
2022-09-17T06:03:43.553Z,65.23
2022-09-17T06:06:48.572Z,64.11
2022-09-17T06:09:55.452Z,63.47
2022-09-17T06:13:02.748Z,63.31
2022-09-17T06:16:10.036Z,62.90
2022-09-17T06:19:16.416Z,61.91
2022-09-17T06:22:22.246Z,62.21
2022-09-17T06:25:28.004Z,63.43
2022-09-17T06:28:27.147Z,62.44
2022-09-17T06:31:32.958Z,60.85
2022-09-17T06:34:38.207Z,60.74
2022-09-17T06:37:46.336Z,62.12
2022-09-17T06:40:51.206Z,62.01
2022-09-17T06:43:56.933Z,62.12
2022-09-17T06:47:06.214Z,61.12
2022-09-17T06:50:11.121Z,59.46
2022-09-17T06:53:16.623Z,60.74
2022-09-17T06:56:23.151Z,60.88
2022-09-17T06:59:29.789Z,61.15
2022-09-17T07:02:35.850Z,59.83
2022-09-17T07:05:42.377Z,59.96
2022-09-17T07:11:30.661Z,57.76
2022-09-17T07:14:36.464Z,57.82
2022-09-17T07:17:47.244Z,57.72
2022-09-17T07:20:51.923Z,57.49
2022-09-17T07:23:57.837Z,57.00
2022-09-17T07:27:04.450Z,55.50
2022-09-17T07:30:10.512Z,55.29
2022-09-17T07:33:17.369Z,55.24
2022-09-17T07:36:25.919Z,54.32
2022-09-17T07:39:31.494Z,52.91
2022-09-17T07:42:38.858Z,52.66
2022-09-17T07:45:44.656Z,53.25
2022-09-17T07:48:49.296Z,51.92
2022-09-17T07:51:54.012Z,51.70
2022-09-17T07:54:59.145Z,52.87
2022-09-17T07:58:07.345Z,51.67
2022-09-17T08:01:19.980Z,51.77
2022-09-17T08:04:27.527Z,50.69
2022-09-17T08:07:33.695Z,50.89
2022-09-17T08:10:40.720Z,51.62
2022-09-17T08:13:46.890Z,51.79
2022-09-17T08:16:54.213Z,51.06
2022-09-17T08:20:01.260Z,50.54
2022-09-17T08:23:07.282Z,51.50
2022-09-17T08:26:15.408Z,50.04
2022-09-17T08:29:21.938Z,50.08
2022-09-17T08:32:28.991Z,50.35
2022-09-17T08:35:34.698Z,49.13
2022-09-17T08:38:42.919Z,49.12
2022-09-17T08:42:22.919Z,50.18
2022-09-17T08:45:28.339Z,49.57
2022-09-17T08:48:34.125Z,50.52
2022-09-17T08:51:46.679Z,49.74
2022-09-17T08:55:12.535Z,49.61
2022-09-17T08:58:31.909Z,49.25
2022-09-17T09:01:51.425Z,49.26
2022-09-17T09:05:09.820Z,48.63
2022-09-17T09:08:22.530Z,48.57
2022-09-17T09:11:33.632Z,47.42
2022-09-17T09:14:50.344Z,47.93
2022-09-17T09:18:01.865Z,48.06
2022-09-17T09:21:35.016Z,48.37
2022-09-17T09:24:41.143Z,48.08
2022-09-17T09:27:54.266Z,48.52
2022-09-17T09:31:21.070Z,49.03
2022-09-17T09:34:28.187Z,48.66
2022-09-17T09:37:40.853Z,49.06
2022-09-17T09:40:59.878Z,48.17
2022-09-17T09:44:17.112Z,47.89
2022-09-17T09:47:58.625Z,47.85
2022-09-17T09:51:15.127Z,47.01
2022-09-17T09:54:28.780Z,46.66
2022-09-17T09:57:57.649Z,46.63
2022-09-17T10:01:04.146Z,45.50
2022-09-17T10:04:10.039Z,45.45
2022-09-17T10:07:22.163Z,45.22
2022-09-17T10:10:29.114Z,45.77
2022-09-17T10:13:35.957Z,45.90
2022-09-17T10:16:43.438Z,46.17
2022-09-17T10:19:48.865Z,46.28
2022-09-17T10:22:56.937Z,46.26
2022-09-17T10:26:02.785Z,46.79
2022-09-17T10:29:10.337Z,47.49
2022-09-17T10:32:16.924Z,48.65
2022-09-17T10:35:33.916Z,48.64
2022-09-17T10:38:56.596Z,48.54
2022-09-17T10:42:20.578Z,49.10
2022-09-17T10:45:44.600Z,49.21
2022-09-17T10:48:54.501Z,49.87
2022-09-17T10:52:01.110Z,51.59
2022-09-17T10:55:25.901Z,52.70
2022-09-17T10:58:55.914Z,54.48
2022-09-17T11:02:36.622Z,55.79
2022-09-17T11:05:47.195Z,56.01
2022-09-17T11:09:17.749Z,56.61
2022-09-17T11:12:53.359Z,57.95
2022-09-17T11:16:31.161Z,58.28
2022-09-17T11:19:59.017Z,57.81
2022-09-17T11:23:41.627Z,58.29
2022-09-17T11:27:16.758Z,58.42
2022-09-17T11:30:35.792Z,58.04
2022-09-17T11:33:54.955Z,59.69
2022-09-17T11:37:37.887Z,60.62
2022-09-17T11:40:59.213Z,59.14
2022-09-17T11:44:38.365Z,60.18
2022-09-17T11:48:13.229Z,60.48
2022-09-17T11:51:50.891Z,61.79
2022-09-17T11:55:11.796Z,60.56
2022-09-17T11:58:30.354Z,60.59
2022-09-17T12:02:07.676Z,59.26
2022-09-17T12:05:40.129Z,57.82
2022-09-17T12:09:16.722Z,57.92
2022-09-17T12:12:49.499Z,58.16
2022-09-17T12:15:43.773Z,59.21
2022-09-17T12:19:08.491Z,58.38
2022-09-17T12:22:36.987Z,57.36
2022-09-17T12:25:34.899Z,56.58
2022-09-17T12:28:25.933Z,58.55
2022-09-17T12:31:44.322Z,58.87
2022-09-17T12:34:56.856Z,57.79
2022-09-17T12:38:25.072Z,56.20
2022-09-17T12:41:25.070Z,56.94
2022-09-17T12:44:59.431Z,56.05
2022-09-17T12:48:24.742Z,54.18
2022-09-17T12:51:47.464Z,54.87
2022-09-17T12:55:19.597Z,54.48
2022-09-17T12:58:45.470Z,53.92
2022-09-17T13:02:02.362Z,53.72
2022-09-17T13:05:18.383Z,53.92
2022-09-17T13:09:00.983Z,52.98
2022-09-17T13:12:43.607Z,52.37
2022-09-17T13:16:29.126Z,52.92
2022-09-17T13:19:52.669Z,50.83
2022-09-17T13:23:01.269Z,51.04
2022-09-17T13:26:08.562Z,51.16
2022-09-17T13:29:16.230Z,51.04
2022-09-17T13:32:22.905Z,49.63
2022-09-17T13:35:33.121Z,48.76
2022-09-17T13:38:33.024Z,48.19
2022-09-17T13:41:39.277Z,48.06
2022-09-17T13:44:45.046Z,48.43
2022-09-17T13:48:05.617Z,48.69
2022-09-17T13:51:12.154Z,48.66
2022-09-17T13:54:19.933Z,48.84
2022-09-17T13:57:27.538Z,49.83
2022-09-17T14:01:11.124Z,50.35
2022-09-17T14:04:16.949Z,50.40
2022-09-17T14:07:42.018Z,50.49
2022-09-17T14:10:54.829Z,50.47
2022-09-17T14:14:02.437Z,51.21
2022-09-17T14:17:08.070Z,51.98
2022-09-17T14:20:14.872Z,52.60
2022-09-17T14:23:19.781Z,52.63
2022-09-17T14:26:36.563Z,52.26
2022-09-17T14:29:55.353Z,52.03
2022-09-17T14:33:05.984Z,52.64
2022-09-17T14:36:09.194Z,52.43
2022-09-17T14:39:15.971Z,52.63
2022-09-17T14:42:23.999Z,52.09
2022-09-17T14:45:36.428Z,52.84
2022-09-17T14:48:41.328Z,53.23
2022-09-17T14:51:46.841Z,53.77
2022-09-17T14:54:52.405Z,54.37
2022-09-17T14:58:01.603Z,54.31
2022-09-17T15:01:08.616Z,54.60
2022-09-17T15:04:30.955Z,54.89
2022-09-17T15:07:39.953Z,55.77
2022-09-17T15:10:44.372Z,56.28
2022-09-17T15:13:47.228Z,55.77
2022-09-17T15:17:01.879Z,56.05
2022-09-17T15:20:10.952Z,56.25
2022-09-17T15:23:38.913Z,56.27
2022-09-17T15:26:48.684Z,56.65
2022-09-17T15:29:56.401Z,57.70
2022-09-17T15:33:11.588Z,58.07
2022-09-17T15:36:39.638Z,58.65
2022-09-17T15:39:46.461Z,59.26
2022-09-17T15:42:51.371Z,60.96
2022-09-17T15:45:56.807Z,62.17
2022-09-17T15:49:03.374Z,63.27
2022-09-17T15:52:09.052Z,64.32
2022-09-17T15:55:15.522Z,64.73
2022-09-17T15:58:46.186Z,64.50
2022-09-17T16:02:03.237Z,65.42
2022-09-17T16:05:24.663Z,65.73
2022-09-17T16:08:33.557Z,65.74
2022-09-17T16:11:42.903Z,66.45
2022-09-17T16:14:49.249Z,65.76
2022-09-17T16:18:01.210Z,66.41
2022-09-17T16:21:06.667Z,66.29
2022-09-17T16:24:13.204Z,66.24
2022-09-17T16:27:20.392Z,66.34
2022-09-17T16:30:33.791Z,67.48
2022-09-17T16:33:42.725Z,67.16
2022-09-17T16:36:48.552Z,67.02
2022-09-17T16:39:54.135Z,67.74
2022-09-17T16:42:59.887Z,68.71
2022-09-17T16:46:23.730Z,68.96
2022-09-17T16:49:32.826Z,69.20
2022-09-17T16:52:38.371Z,68.28
2022-09-17T16:55:44.843Z,68.40
2022-09-17T16:58:50.003Z,68.11
2022-09-17T17:01:56.711Z,67.43
2022-09-17T17:05:02.379Z,68.24
2022-09-17T17:08:09.139Z,68.88
2022-09-17T17:11:15.647Z,68.30
2022-09-17T17:14:21.612Z,68.21
2022-09-17T17:17:27.674Z,67.89
2022-09-17T17:20:33.869Z,67.64
2022-09-17T17:23:39.398Z,66.89
2022-09-17T17:26:44.969Z,67.00
2022-09-17T17:29:50.594Z,67.34
2022-09-17T17:32:56.330Z,67.55
2022-09-17T17:36:07.486Z,67.18
2022-09-17T17:39:13.206Z,66.20
2022-09-17T17:42:18.590Z,66.99
2022-09-17T17:45:24.139Z,67.50
2022-09-17T17:48:29.876Z,67.81
2022-09-17T17:51:35.662Z,68.47
2022-09-17T17:54:41.598Z,68.96
2022-09-17T17:57:48.806Z,69.26
2022-09-17T18:00:54.536Z,69.29
2022-09-17T18:03:59.858Z,68.63
2022-09-17T18:07:05.619Z,68.92
2022-09-17T18:10:12.091Z,69.27
2022-09-17T18:13:17.652Z,70.04
2022-09-17T18:16:26.565Z,69.91
2022-09-17T18:19:32.088Z,69.71
2022-09-17T18:22:37.272Z,70.06
2022-09-17T18:25:43.954Z,69.63
2022-09-17T18:28:50.522Z,70.25
2022-09-17T18:31:57.091Z,69.92
2022-09-17T18:35:03.879Z,70.00
2022-09-17T18:38:09.922Z,70.52
2022-09-17T18:41:22.084Z,70.66
2022-09-17T18:44:27.927Z,70.87
2022-09-17T18:47:34.614Z,71.18
2022-09-17T18:50:40.779Z,71.12
2022-09-17T18:53:43.445Z,70.34
2022-09-17T18:56:44.627Z,70.35
2022-09-17T18:59:50.570Z,70.59
2022-09-17T19:02:57.041Z,71.38
2022-09-17T19:05:56.003Z,71.17
2022-09-17T19:09:02.650Z,71.72
2022-09-17T19:12:08.929Z,71.54
2022-09-17T19:15:16.587Z,71.20
2022-09-17T19:18:22.278Z,71.40
2022-09-17T19:21:30.056Z,71.45
2022-09-17T19:24:35.159Z,71.62
2022-09-17T19:27:40.861Z,71.51
2022-09-17T19:30:46.712Z,71.01
2022-09-17T19:33:52.231Z,70.61
2022-09-17T19:36:58.073Z,71.02
2022-09-17T19:40:04.142Z,70.26
2022-09-17T19:43:10.692Z,70.15
2022-09-17T19:46:24.427Z,70.01
2022-09-17T19:49:31.135Z,70.14
2022-09-17T19:52:37.238Z,70.15
2022-09-17T19:55:42.801Z,70.15
2022-09-17T19:58:49.081Z,69.67
2022-09-17T20:01:55.307Z,69.43
2022-09-17T20:05:01.755Z,69.24
2022-09-17T20:08:07.776Z,70.40
2022-09-17T20:11:25.208Z,70.58
2022-09-17T20:14:31.734Z,71.11
2022-09-17T20:17:37.996Z,71.11
2022-09-17T20:20:44.080Z,71.88
2022-09-17T20:23:50.163Z,70.94
2022-09-17T20:26:50.181Z,71.16
2022-09-17T20:29:55.994Z,71.41
2022-09-17T20:33:02.068Z,71.37
2022-09-17T20:36:16.000Z,71.43
2022-09-17T20:39:24.631Z,72.09
2022-09-17T20:42:30.770Z,72.19
2022-09-17T20:45:35.858Z,71.96
2022-09-17T20:48:41.537Z,72.26
2022-09-17T20:51:41.775Z,73.76
2022-09-17T20:54:45.956Z,73.38
2022-09-17T20:57:52.066Z,72.55
2022-09-17T21:00:58.356Z,74.03
2022-09-17T21:04:08.068Z,73.97
2022-09-17T21:07:14.848Z,73.76
2022-09-17T21:10:22.336Z,73.33
2022-09-17T21:13:27.990Z,72.91
2022-09-17T21:16:26.140Z,73.28
2022-09-17T21:19:32.368Z,74.70
2022-09-17T21:22:38.308Z,74.34
2022-09-17T21:25:44.032Z,74.47
2022-09-17T21:28:49.793Z,74.52
2022-09-17T21:31:55.751Z,74.58
2022-09-17T21:35:01.664Z,74.28
2022-09-17T21:38:07.172Z,74.92
2022-09-17T21:41:12.870Z,74.20
2022-09-17T21:44:18.720Z,73.84
2022-09-17T21:47:24.335Z,73.53
2022-09-17T21:50:30.206Z,73.81
2022-09-17T21:53:35.517Z,74.18
2022-09-17T21:56:41.481Z,75.14
2022-09-17T21:59:40.263Z,74.81
2022-09-17T22:02:33.939Z,75.00
2022-09-17T22:05:38.953Z,75.17
2022-09-17T22:08:45.262Z,75.80
2022-09-17T22:11:46.077Z,75.90
2022-09-17T22:14:52.141Z,76.32
2022-09-17T22:17:57.346Z,76.00
2022-09-17T22:21:02.864Z,76.21
2022-09-17T22:24:11.425Z,76.05
2022-09-17T22:27:16.665Z,76.12
2022-09-17T22:30:24.018Z,75.31
2022-09-17T22:33:29.761Z,75.95
2022-09-17T22:36:30.579Z,76.55
2022-09-17T22:39:36.887Z,75.96
2022-09-17T22:42:43.216Z,75.95
2022-09-17T22:45:49.802Z,75.50
2022-09-17T22:48:55.314Z,74.65
2022-09-17T22:52:00.422Z,74.72
2022-09-17T22:55:06.447Z,74.49
2022-09-17T22:58:12.599Z,74.62
2022-09-17T23:01:23.768Z,75.86
2022-09-17T23:04:29.680Z,74.89
2022-09-17T23:07:35.462Z,74.56
2022-09-17T23:10:41.809Z,73.55
2022-09-17T23:13:41.187Z,74.84
2022-09-17T23:16:34.102Z,75.93
2022-09-17T23:19:40.094Z,75.62
2022-09-17T23:22:45.824Z,76.02
2022-09-17T23:25:51.950Z,75.35
2022-09-17T23:29:01.234Z,75.15
2022-09-17T23:32:04.750Z,76.00
2022-09-17T23:35:10.843Z,76.02
2022-09-17T23:38:18.014Z,76.92
2022-09-17T23:41:26.559Z,76.24
2022-09-17T23:44:31.808Z,75.92
2022-09-17T23:47:38.479Z,75.48
2022-09-17T23:50:37.958Z,75.94
2022-09-17T23:53:24.032Z,76.28
2022-09-17T23:56:22.823Z,76.14
2022-09-17T23:59:15.538Z,76.06
